KCTZ/CTZ METAR and TAF weather

Enter ICAO airport designator
Station Type Date Time Source
KCTZ METAR 2018/10/21 05:40 UTC NOAA

KCTZ 210540Z AUTO 31004KT 10SM SCT060 16/09 A2987 RMK AO2 T01550093


Station Type Date Time Source
KCTZ Decoded METAR 2018/10/21 05:40 UTC NOAA

Clinton, Sampson County Airport, NC, United States (KCTZ) 34-58-32N 078-21-53W
Oct 21, 2018 - 01:40 AM EDT / 2018.10.21 0540 UTC
Wind: from the NW (310 degrees) at 5 MPH (4 KT):0
Visibility: 10 mile(s):0
Sky conditions: partly cloudy
Temperature: 59.9 F (15.5 C)
Dew Point: 48.7 F (9.3 C)
Relative Humidity: 66%
Pressure (altimeter): 29.87 in. Hg (1011 hPa)
ob: KCTZ 210540Z AUTO 31004KT 10SM SCT060 16/09 A2987 RMK AO2 T01550093
cycle: 5

Station Type Date Time Source
KCTZ TAF UTC NOAA

Error!


Example: see airport list